Orchid Ace — 7JDE — position and weather

sailwx.info

Track history (hours):
 
Tides and Currents Weather Stations Pressure Air Temp Water Temp Dewpoint Dewpoint Depression Visibility Wind Speed Wind Dir Waves Ship Positions

Orchid Ace

Last reported at 2018-Jan-06 00:37 UTC. Time now 2018-Jan-23 11:51 UTC.
Position N 14°03' W 061°02'.
Warning: this ship's position is 17 days out of date.

Length 200 m; draft 7.6 m.

Type: Cargo ship. MMSI: 432651000.

Date/timePositionNaut miles runAvg speedWind from/ knotsBaromVisibWave heightAir tempDewpointWater temp
2018-Jan-06 00:37N 14°03' W 061°02'1 7.6
2018-Jan-06 00:30N 14°04' W 061°02'4 9.0
2018-Jan-06 00:00N 14°08' W 061°03'611.9
2018-Jan-05 23:30N 14°14' W 061°04'713.6
2018-Jan-05 23:00N 14°21' W 061°05'714.1
2018-Jan-05 22:30N 14°27' W 061°07'9 8.1
2018-Jan-05 21:23N 14°36' W 061°04'0 0.0
2018-Jan-05 20:59N 14°36' W 061°04'0 0.0
2018-Jan-05 20:29N 14°36' W 061°04'0 0.0
2018-Jan-05 19:59N 14°36' W 061°04'0 0.0
2018-Jan-05 19:29N 14°36' W 061°04'0 0.0
2018-Jan-05 18:47N 14°36' W 061°04'0 0.0
2018-Jan-05 18:29N 14°36' W 061°04'0 0.0
2018-Jan-05 17:59N 14°36' W 061°04'0 0.0
2018-Jan-05 17:29N 14°36' W 061°04'0 0.0
2018-Jan-05 16:59N 14°36' W 061°04'0 0.0
2018-Jan-05 16:29N 14°36' W 061°04'0 0.0
2018-Jan-05 15:59N 14°36' W 061°04'0 0.0
2018-Jan-05 15:23N 14°36' W 061°04'0 0.0
2018-Jan-05 14:59N 14°36' W 061°04'0 0.0
2018-Jan-05 14:29N 14°36' W 061°04'0 0.0
2018-Jan-05 13:53N 14°36' W 061°04'0 0.0
2018-Jan-05 13:29N 14°36' W 061°04'0 0.0
2018-Jan-05 12:59N 14°36' W 061°04'0 0.0
2018-Jan-05 12:29N 14°36' W 061°04'0 0.0
2018-Jan-05 11:59N 14°36' W 061°04'0 0.0
2018-Jan-05 11:26N 14°36' W 061°04'0 0.0
2018-Jan-05 10:59N 14°36' W 061°04'0 0.0
2018-Jan-05 10:29N 14°36' W 061°04'0 0.0
2018-Jan-05 09:56N 14°36' W 061°04'0 0.0
2018-Jan-05 09:29N 14°36' W 061°04'0 0.0
2018-Jan-05 08:59N 14°36' W 061°04'0 0.0
2018-Jan-05 08:29N 14°36' W 061°04'0 0.0
2018-Jan-05 07:59N 14°36' W 061°04'0 0.0
2018-Jan-05 07:29N 14°36' W 061°04'0 0.0
2018-Jan-05 06:59N 14°36' W 061°04'0 0.0
2018-Jan-05 06:29N 14°36' W 061°04'0 0.0
2018-Jan-05 05:59N 14°36' W 061°04'0 0.0
2018-Jan-05 05:29N 14°36' W 061°04'0 0.0
2018-Jan-05 04:53N 14°36' W 061°04'0 0.0
2018-Jan-05 04:29N 14°36' W 061°04'0 0.0
2018-Jan-05 03:56N 14°36' W 061°04'0 0.0
2018-Jan-05 03:29N 14°36' W 061°04'0 0.0
2018-Jan-05 02:59N 14°36' W 061°04'0 0.0
2018-Jan-05 02:26N 14°36' W 061°04'0 0.0
2018-Jan-05 01:59N 14°36' W 061°04'0 0.0
2018-Jan-05 01:26N 14°36' W 061°04'0 0.0
2018-Jan-05 00:59N 14°36' W 061°04'0 0.0
2018-Jan-05 00:26N 14°36' W 061°04'0 0.0
2018-Jan-04 23:59N 14°36' W 061°04'0 0.0
2018-Jan-04 23:29N 14°36' W 061°04'0 0.6
2018-Jan-04 23:00N 14°36' W 061°04'3 5.6
2018-Jan-04 22:30N 14°35' W 061°07'4 6.3
2018-Jan-04 21:48N 14°36' W 061°11'1 1.3
2018-Jan-04 21:23N 14°35' W 061°11'0 1.2
2018-Jan-04 21:00N 14°35' W 061°10'1 1.1
2018-Jan-04 20:16N 14°35' W 061°10'1 1.1
2018-Jan-04 19:49N 14°35' W 061°09'0 1.0
2018-Jan-04 19:28N 14°35' W 061°09'0 1.0
2018-Jan-04 18:58N 14°35' W 061°08'1 1.6
2018-Jan-04 18:10N 14°35' W 061°07'0 2.8
2018-Jan-04 18:00N 14°35' W 061°07'611.5
2018-Jan-04 17:29N 14°39' W 061°11'52 3.1
2018-Jan-04 00:48N 15°27' W 061°30'515.2
2018-Jan-04 00:30N 15°32' W 061°32'1714.7
2018-Jan-03 23:21N 15°49' W 061°31'614.1
2018-Jan-03 22:55N 15°55' W 061°30'614.5
2018-Jan-03 22:29N 16°01' W 061°30'713.7
2018-Jan-03 21:59N 16°08' W 061°31'4 8.3
2018-Jan-03 21:30N 16°12' W 061°33'2 3.6
2018-Jan-03 20:49N 16°14' W 061°33'0 0.0
2018-Jan-03 20:22N 16°14' W 061°33'0 0.0
2018-Jan-03 19:58N 16°14' W 061°33'0 0.0
2018-Jan-03 19:28N 16°14' W 061°33'0 0.0
2018-Jan-03 18:58N 16°14' W 061°33'0 0.0
2018-Jan-03 18:28N 16°14' W 061°33'0 0.0
2018-Jan-03 17:49N 16°14' W 061°33'0 0.0
2018-Jan-03 17:28N 16°14' W 061°33'0 0.0
2018-Jan-03 16:58N 16°14' W 061°33'0 0.0
2018-Jan-03 16:25N 16°14' W 061°33'0 0.0
2018-Jan-03 15:46N 16°14' W 061°33'0 0.0
2018-Jan-03 15:28N 16°14' W 061°33'0 0.0
2018-Jan-03 14:58N 16°14' W 061°33'0 0.0
2018-Jan-03 14:28N 16°14' W 061°33'0 0.0
2018-Jan-03 13:58N 16°14' W 061°33'0 0.0
2018-Jan-03 13:28N 16°14' W 061°33'0 0.0
2018-Jan-03 12:58N 16°14' W 061°33'0 0.0
2018-Jan-03 12:25N 16°14' W 061°33'0 0.0
2018-Jan-03 11:52N 16°14' W 061°33'0 0.0
2018-Jan-03 11:19N 16°14' W 061°33'0 0.0
2018-Jan-03 10:58N 16°14' W 061°33'0 0.0
2018-Jan-03 10:25N 16°14' W 061°33'0 0.0
2018-Jan-03 09:55N 16°14' W 061°33'0 0.0
2018-Jan-03 09:28N 16°14' W 061°33'0 0.0
2018-Jan-03 08:55N 16°14' W 061°33'0 0.0
2018-Jan-03 08:19N 16°14' W 061°33'0 0.0
2018-Jan-03 07:58N 16°14' W 061°33'0 0.0
2018-Jan-03 07:25N 16°14' W 061°33'0 0.0
2018-Jan-03 06:58N 16°14' W 061°33'0 0.0
2018-Jan-03 06:25N 16°14' W 061°33'0 0.0
2018-Jan-03 05:58N 16°14' W 061°33'0 0.0
2018-Jan-03 05:28N 16°14' W 061°33'0 0.0
2018-Jan-03 04:58N 16°14' W 061°33'0 0.0
2018-Jan-03 04:28N 16°14' W 061°33'0 0.0
2018-Jan-03 03:58N 16°14' W 061°33'0 0.0
2018-Jan-03 03:25N 16°14' W 061°33'0 0.0
2018-Jan-03 02:55N 16°14' W 061°33'0 0.0
2018-Jan-03 02:13N 16°14' W 061°33'0 0.0
2018-Jan-03 01:55N 16°14' W 061°33'0 0.0
2018-Jan-03 01:28N 16°14' W 061°33'0 0.3
2018-Jan-03 01:00N 16°14' W 061°32'2 4.7
2018-Jan-03 00:30N 16°12' W 061°32'3 6.9
2018-Jan-03 00:00N 16°09' W 061°30'2 4.2
2018-Jan-02 23:30N 16°07' W 061°29'4 7.7
2018-Jan-02 23:00N 16°04' W 061°31'1412.6
2018-Jan-02 21:53N 15°56' W 061°43'514.1
2018-Jan-02 21:30N 15°59' W 061°47'814.9
2018-Jan-02 21:00N 16°06' W 061°51'714.2
2018-Jan-02 20:29N 16°13' W 061°52'713.9
2018-Jan-02 20:00N 16°20' W 061°52'714.2
2018-Jan-02 19:30N 16°27' W 061°53'714.2
2018-Jan-02 19:00N 16°34' W 061°54'714.6
2018-Jan-02 18:30N 16°41' W 061°55'714.5
2018-Jan-02 18:00N 16°49' W 061°55'714.5
2018-Jan-02 17:30N 16°56' W 061°56'714.5
2018-Jan-02 17:00N 17°03' W 061°57'612.5
2018-Jan-02 16:31N 17°09' W 061°55'4 7.7
2018-Jan-02 16:00N 17°07' W 061°51'0 0.0
2018-Jan-02 15:29N 17°08' W 061°51'0 0.0
2018-Jan-02 14:59N 17°08' W 061°51'0 0.0
2018-Jan-02 14:29N 17°08' W 061°51'0 0.0
2018-Jan-02 13:59N 17°08' W 061°51'0 0.0
2018-Jan-02 13:29N 17°08' W 061°51'0 0.0
2018-Jan-02 12:59N 17°08' W 061°51'0 0.0
2018-Jan-02 12:29N 17°08' W 061°51'0 0.0
2018-Jan-02 11:59N 17°08' W 061°51'0 0.0
2018-Jan-02 11:29N 17°08' W 061°51'0 0.0
2018-Jan-02 11:00N 17°08' W 061°51'0 0.8
2018-Jan-02 10:30N 17°08' W 061°52'3 5.6
2018-Jan-02 10:00N 17°09' W 061°54'2 4.5
2018-Jan-02 09:31N 17°09' W 061°57'4 3.5
2018-Jan-02 08:28N 17°06' W 061°59'0 0.0
2018-Jan-02 07:58N 17°06' W 061°59'0 0.0
2018-Jan-02 07:28N 17°06' W 061°59'0 0.0
2018-Jan-02 06:58N 17°06' W 061°59'0 0.0
2018-Jan-02 06:28N 17°06' W 061°59'0 0.0
2018-Jan-02 05:58N 17°06' W 061°59'0 0.0
2018-Jan-02 05:28N 17°06' W 061°59'0 0.0
2018-Jan-02 04:28N 17°06' W 061°59'0 0.0
2018-Jan-02 03:58N 17°06' W 061°59'0 0.0
2018-Jan-02 03:28N 17°06' W 061°59'0 0.0
2018-Jan-02 02:58N 17°06' W 061°59'0 0.0
2018-Jan-02 02:28N 17°06' W 061°59'0 0.0
2018-Jan-02 01:58N 17°06' W 061°59'0 0.0
2018-Jan-02 01:28N 17°06' W 061°59'0 0.0
2018-Jan-02 00:58N 17°06' W 061°59'0 0.0
2018-Jan-02 00:28N 17°06' W 061°59'0 0.0
2018-Jan-01 23:58N 17°06' W 061°59'0 0.0
2018-Jan-01 23:28N 17°06' W 061°59'0 0.0
2018-Jan-01 22:58N 17°06' W 061°59'0 0.0
2018-Jan-01 22:28N 17°06' W 061°59'0 0.0
2018-Jan-01 21:55N 17°06' W 061°59'0 0.0
2018-Jan-01 21:28N 17°06' W 061°59'0 0.0
2018-Jan-01 20:58N 17°06' W 061°59'0 0.0
2018-Jan-01 20:28N 17°06' W 061°59'0 0.0
2018-Jan-01 19:58N 17°06' W 061°59'0 0.0
2018-Jan-01 19:28N 17°06' W 061°59'0 0.0
2018-Jan-01 18:58N 17°06' W 061°59'0 0.0
2018-Jan-01 18:28N 17°06' W 061°59'0 0.0
2018-Jan-01 17:55N 17°06' W 061°59'0 0.0
2018-Jan-01 17:28N 17°06' W 061°59'0 0.0
2018-Jan-01 14:58N 17°06' W 061°59'0 0.0
2018-Jan-01 14:28N 17°06' W 061°59'0 0.0
2018-Jan-01 13:58N 17°06' W 061°59'0 0.0
2018-Jan-01 13:28N 17°06' W 061°59'0 0.1
2018-Jan-01 12:58N 17°06' W 061°59'0 0.0
2018-Jan-01 11:58N 17°06' W 061°59'0 0.0
2018-Jan-01 11:25N 17°06' W 061°59'0 0.0
2018-Jan-01 10:58N 17°06' W 061°59'0 0.0
2018-Jan-01 10:28N 17°06' W 061°59'0 0.0
2018-Jan-01 09:58N 17°06' W 061°59'0 0.0
2018-Jan-01 09:25N 17°06' W 061°59'0 0.0
2018-Jan-01 08:28N 17°06' W 061°59'0 0.0
2018-Jan-01 07:58N 17°06' W 061°59'0 0.0
2018-Jan-01 07:25N 17°06' W 061°59'0 0.0
2018-Jan-01 06:58N 17°06' W 061°59'0 0.0
2018-Jan-01 05:58N 17°06' W 061°59'0 0.0
2018-Jan-01 05:28N 17°06' W 061°59'0 0.0
2018-Jan-01 04:58N 17°06' W 061°59'0 0.0
2018-Jan-01 03:58N 17°06' W 061°59'0 0.0
2018-Jan-01 03:28N 17°06' W 061°59'0 0.0
2018-Jan-01 02:58N 17°06' W 061°59'0 0.0
2018-Jan-01 02:28N 17°06' W 061°59'0 0.0
2018-Jan-01 01:58N 17°06' W 061°59'0 0.0
2018-Jan-01 01:28N 17°06' W 061°59'0 0.0
2018-Jan-01 00:28N 17°06' W 061°59'0 0.0
2017-Dec-31 20:58N 17°06' W 061°59'0 0.0
2017-Dec-31 20:28N 17°06' W 061°59'0 0.0
2017-Dec-31 19:58N 17°06' W 061°59'0 0.0
2017-Dec-31 19:28N 17°06' W 061°59'0 0.0
2017-Dec-31 18:58N 17°06' W 061°59'0 0.3
2017-Dec-31 18:29N 17°06' W 061°59'2 4.9
2017-Dec-31 18:01N 17°06' W 062°01'713.2
2017-Dec-31 17:30N 17°06' W 062°08'713.9
2017-Dec-31 17:00N 17°05' W 062°15'713.3
2017-Dec-31 16:28N 17°05' W 062°23'813.3
2017-Dec-31 15:51N 17°04' W 062°32'613.5
2017-Dec-31 15:22N 17°05' W 062°38'913.9
2017-Dec-31 14:43N 17°13' W 062°42'312.8
2017-Dec-31 14:28N 17°16' W 062°43'1 0.1
2017-Dec-31 10:18N 17°17' W 062°43'0 0.3
2017-Dec-31 10:00N 17°17' W 062°43'0 0.3
2017-Dec-31 09:26N 17°17' W 062°43'0 0.0
2017-Dec-31 08:56N 17°17' W 062°43'0 0.1
2017-Dec-31 08:29N 17°17' W 062°43'0 0.1
2017-Dec-31 07:59N 17°17' W 062°43'0 0.0
2017-Dec-31 07:29N 17°17' W 062°43'0 0.1
2017-Dec-31 06:50N 17°17' W 062°43'0 0.0
2017-Dec-31 05:44N 17°17' W 062°43'0 0.1
2017-Dec-31 05:29N 17°17' W 062°43'0 0.0
2017-Dec-31 04:56N 17°17' W 062°43'0 0.0
2017-Dec-31 04:29N 17°17' W 062°43'0 0.0
2017-Dec-31 03:59N 17°17' W 062°43'0 0.0
2017-Dec-31 03:29N 17°17' W 062°43'0 0.0
2017-Dec-31 02:59N 17°17' W 062°43'0 0.1
2017-Dec-31 02:29N 17°17' W 062°43'0 0.0
2017-Dec-30 23:41N 17°17' W 062°43'0 0.0
2017-Dec-30 23:23N 17°17' W 062°43'0 0.1
2017-Dec-30 22:50N 17°17' W 062°43'0 0.2
2017-Dec-30 22:29N 17°17' W 062°43'0 0.0
2017-Dec-30 21:41N 17°17' W 062°43'0 0.0
2017-Dec-30 21:26N 17°17' W 062°43'0 0.0
2017-Dec-30 19:32N 17°17' W 062°43'42 9.6
2017-Dec-30 15:08N 17°06' W 063°26'  
Track history (hours):
 
Tides and Currents Weather Stations Pressure Air Temp Water Temp Dewpoint Dewpoint Depression Visibility Wind Speed Wind Dir Waves Ship Positions

Orchid Ace

Last reported at 2018-Jan-06 00:37 UTC. Time now 2018-Jan-23 11:51 UTC.
Position N 14°03' W 061°02'.
Warning: this ship's position is 17 days out of date.

Length 200 m; draft 7.6 m.

Type: Cargo ship. MMSI: 432651000.

Date/timePositionNaut miles runAvg speedWind from/ knotsBaromVisibWave heightAir tempDewpointWater temp
2018-Jan-06 00:37N 14°03' W 061°02'1 7.6
2018-Jan-06 00:30N 14°04' W 061°02'4 9.0
2018-Jan-06 00:00N 14°08' W 061°03'611.9
2018-Jan-05 23:30N 14°14' W 061°04'713.6
2018-Jan-05 23:00N 14°21' W 061°05'714.1
2018-Jan-05 22:30N 14°27' W 061°07'9 8.1
2018-Jan-05 21:23N 14°36' W 061°04'0 0.0
2018-Jan-05 20:59N 14°36' W 061°04'0 0.0
2018-Jan-05 20:29N 14°36' W 061°04'0 0.0
2018-Jan-05 19:59N 14°36' W 061°04'0 0.0
2018-Jan-05 19:29N 14°36' W 061°04'0 0.0
2018-Jan-05 18:47N 14°36' W 061°04'0 0.0
2018-Jan-05 18:29N 14°36' W 061°04'0 0.0
2018-Jan-05 17:59N 14°36' W 061°04'0 0.0
2018-Jan-05 17:29N 14°36' W 061°04'0 0.0
2018-Jan-05 16:59N 14°36' W 061°04'0 0.0
2018-Jan-05 16:29N 14°36' W 061°04'0 0.0
2018-Jan-05 15:59N 14°36' W 061°04'0 0.0
2018-Jan-05 15:23N 14°36' W 061°04'0 0.0
2018-Jan-05 14:59N 14°36' W 061°04'0 0.0
2018-Jan-05 14:29N 14°36' W 061°04'0 0.0
2018-Jan-05 13:53N 14°36' W 061°04'0 0.0
2018-Jan-05 13:29N 14°36' W 061°04'0 0.0
2018-Jan-05 12:59N 14°36' W 061°04'0 0.0
2018-Jan-05 12:29N 14°36' W 061°04'0 0.0
2018-Jan-05 11:59N 14°36' W 061°04'0 0.0
2018-Jan-05 11:26N 14°36' W 061°04'0 0.0
2018-Jan-05 10:59N 14°36' W 061°04'0 0.0
2018-Jan-05 10:29N 14°36' W 061°04'0 0.0
2018-Jan-05 09:56N 14°36' W 061°04'0 0.0
2018-Jan-05 09:29N 14°36' W 061°04'0 0.0
2018-Jan-05 08:59N 14°36' W 061°04'0 0.0
2018-Jan-05 08:29N 14°36' W 061°04'0 0.0
2018-Jan-05 07:59N 14°36' W 061°04'0 0.0
2018-Jan-05 07:29N 14°36' W 061°04'0 0.0
2018-Jan-05 06:59N 14°36' W 061°04'0 0.0
2018-Jan-05 06:29N 14°36' W 061°04'0 0.0
2018-Jan-05 05:59N 14°36' W 061°04'0 0.0
2018-Jan-05 05:29N 14°36' W 061°04'0 0.0
2018-Jan-05 04:53N 14°36' W 061°04'0 0.0
2018-Jan-05 04:29N 14°36' W 061°04'0 0.0
2018-Jan-05 03:56N 14°36' W 061°04'0 0.0
2018-Jan-05 03:29N 14°36' W 061°04'0 0.0
2018-Jan-05 02:59N 14°36' W 061°04'0 0.0
2018-Jan-05 02:26N 14°36' W 061°04'0 0.0
2018-Jan-05 01:59N 14°36' W 061°04'0 0.0
2018-Jan-05 01:26N 14°36' W 061°04'0 0.0
2018-Jan-05 00:59N 14°36' W 061°04'0 0.0
2018-Jan-05 00:26N 14°36' W 061°04'0 0.0
2018-Jan-04 23:59N 14°36' W 061°04'0 0.0
2018-Jan-04 23:29N 14°36' W 061°04'0 0.6
2018-Jan-04 23:00N 14°36' W 061°04'3 5.6
2018-Jan-04 22:30N 14°35' W 061°07'4 6.3
2018-Jan-04 21:48N 14°36' W 061°11'1 1.3
2018-Jan-04 21:23N 14°35' W 061°11'0 1.2
2018-Jan-04 21:00N 14°35' W 061°10'1 1.1
2018-Jan-04 20:16N 14°35' W 061°10'1 1.1
2018-Jan-04 19:49N 14°35' W 061°09'0 1.0
2018-Jan-04 19:28N 14°35' W 061°09'0 1.0
2018-Jan-04 18:58N 14°35' W 061°08'1 1.6
2018-Jan-04 18:10N 14°35' W 061°07'0 2.8
2018-Jan-04 18:00N 14°35' W 061°07'611.5
2018-Jan-04 17:29N 14°39' W 061°11'52 3.1
2018-Jan-04 00:48N 15°27' W 061°30'515.2
2018-Jan-04 00:30N 15°32' W 061°32'1714.7
2018-Jan-03 23:21N 15°49' W 061°31'614.1
2018-Jan-03 22:55N 15°55' W 061°30'614.5
2018-Jan-03 22:29N 16°01' W 061°30'713.7
2018-Jan-03 21:59N 16°08' W 061°31'4 8.3
2018-Jan-03 21:30N 16°12' W 061°33'2 3.6
2018-Jan-03 20:49N 16°14' W 061°33'0 0.0
2018-Jan-03 20:22N 16°14' W 061°33'0 0.0
2018-Jan-03 19:58N 16°14' W 061°33'0 0.0
2018-Jan-03 19:28N 16°14' W 061°33'0 0.0
2018-Jan-03 18:58N 16°14' W 061°33'0 0.0
2018-Jan-03 18:28N 16°14' W 061°33'0 0.0
2018-Jan-03 17:49N 16°14' W 061°33'0 0.0
2018-Jan-03 17:28N 16°14' W 061°33'0 0.0
2018-Jan-03 16:58N 16°14' W 061°33'0 0.0
2018-Jan-03 16:25N 16°14' W 061°33'0 0.0
2018-Jan-03 15:46N 16°14' W 061°33'0 0.0
2018-Jan-03 15:28N 16°14' W 061°33'0 0.0
2018-Jan-03 14:58N 16°14' W 061°33'0 0.0
2018-Jan-03 14:28N 16°14' W 061°33'0 0.0
2018-Jan-03 13:58N 16°14' W 061°33'0 0.0
2018-Jan-03 13:28N 16°14' W 061°33'0 0.0
2018-Jan-03 12:58N 16°14' W 061°33'0 0.0
2018-Jan-03 12:25N 16°14' W 061°33'0 0.0
2018-Jan-03 11:52N 16°14' W 061°33'0 0.0
2018-Jan-03 11:19N 16°14' W 061°33'0 0.0
2018-Jan-03 10:58N 16°14' W 061°33'0 0.0
2018-Jan-03 10:25N 16°14' W 061°33'0 0.0
2018-Jan-03 09:55N 16°14' W 061°33'0 0.0
2018-Jan-03 09:28N 16°14' W 061°33'0 0.0
2018-Jan-03 08:55N 16°14' W 061°33'0 0.0
2018-Jan-03 08:19N 16°14' W 061°33'0 0.0
2018-Jan-03 07:58N 16°14' W 061°33'0 0.0
2018-Jan-03 07:25N 16°14' W 061°33'0 0.0
2018-Jan-03 06:58N 16°14' W 061°33'0 0.0
2018-Jan-03 06:25N 16°14' W 061°33'0 0.0
2018-Jan-03 05:58N 16°14' W 061°33'0 0.0
2018-Jan-03 05:28N 16°14' W 061°33'0 0.0
2018-Jan-03 04:58N 16°14' W 061°33'0 0.0
2018-Jan-03 04:28N 16°14' W 061°33'0 0.0
2018-Jan-03 03:58N 16°14' W 061°33'0 0.0
2018-Jan-03 03:25N 16°14' W 061°33'0 0.0
2018-Jan-03 02:55N 16°14' W 061°33'0 0.0
2018-Jan-03 02:13N 16°14' W 061°33'0 0.0
2018-Jan-03 01:55N 16°14' W 061°33'0 0.0
2018-Jan-03 01:28N 16°14' W 061°33'0 0.3
2018-Jan-03 01:00N 16°14' W 061°32'2 4.7
2018-Jan-03 00:30N 16°12' W 061°32'3 6.9
2018-Jan-03 00:00N 16°09' W 061°30'2 4.2
2018-Jan-02 23:30N 16°07' W 061°29'4 7.7
2018-Jan-02 23:00N 16°04' W 061°31'1412.6
2018-Jan-02 21:53N 15°56' W 061°43'514.1
2018-Jan-02 21:30N 15°59' W 061°47'814.9
2018-Jan-02 21:00N 16°06' W 061°51'714.2
2018-Jan-02 20:29N 16°13' W 061°52'713.9
2018-Jan-02 20:00N 16°20' W 061°52'714.2
2018-Jan-02 19:30N 16°27' W 061°53'714.2
2018-Jan-02 19:00N 16°34' W 061°54'714.6
2018-Jan-02 18:30N 16°41' W 061°55'714.5
2018-Jan-02 18:00N 16°49' W 061°55'714.5
2018-Jan-02 17:30N 16°56' W 061°56'714.5
2018-Jan-02 17:00N 17°03' W 061°57'612.5
2018-Jan-02 16:31N 17°09' W 061°55'4 7.7
2018-Jan-02 16:00N 17°07' W 061°51'0 0.0
2018-Jan-02 15:29N 17°08' W 061°51'0 0.0
2018-Jan-02 14:59N 17°08' W 061°51'0 0.0
2018-Jan-02 14:29N 17°08' W 061°51'0 0.0
2018-Jan-02 13:59N 17°08' W 061°51'0 0.0
2018-Jan-02 13:29N 17°08' W 061°51'0 0.0
2018-Jan-02 12:59N 17°08' W 061°51'0 0.0
2018-Jan-02 12:29N 17°08' W 061°51'0 0.0
2018-Jan-02 11:59N 17°08' W 061°51'0 0.0
2018-Jan-02 11:29N 17°08' W 061°51'0 0.0
2018-Jan-02 11:00N 17°08' W 061°51'0 0.8
2018-Jan-02 10:30N 17°08' W 061°52'3 5.6
2018-Jan-02 10:00N 17°09' W 061°54'2 4.5
2018-Jan-02 09:31N 17°09' W 061°57'4 3.5
2018-Jan-02 08:28N 17°06' W 061°59'0 0.0
2018-Jan-02 07:58N 17°06' W 061°59'0 0.0
2018-Jan-02 07:28N 17°06' W 061°59'0 0.0
2018-Jan-02 06:58N 17°06' W 061°59'0 0.0
2018-Jan-02 06:28N 17°06' W 061°59'0 0.0
2018-Jan-02 05:58N 17°06' W 061°59'0 0.0
2018-Jan-02 05:28N 17°06' W 061°59'0 0.0
2018-Jan-02 04:28N 17°06' W 061°59'0 0.0
2018-Jan-02 03:58N 17°06' W 061°59'0 0.0
2018-Jan-02 03:28N 17°06' W 061°59'0 0.0
2018-Jan-02 02:58N 17°06' W 061°59'0 0.0
2018-Jan-02 02:28N 17°06' W 061°59'0 0.0
2018-Jan-02 01:58N 17°06' W 061°59'0 0.0
2018-Jan-02 01:28N 17°06' W 061°59'0 0.0
2018-Jan-02 00:58N 17°06' W 061°59'0 0.0
2018-Jan-02 00:28N 17°06' W 061°59'0 0.0
2018-Jan-01 23:58N 17°06' W 061°59'0 0.0
2018-Jan-01 23:28N 17°06' W 061°59'0 0.0
2018-Jan-01 22:58N 17°06' W 061°59'0 0.0
2018-Jan-01 22:28N 17°06' W 061°59'0 0.0
2018-Jan-01 21:55N 17°06' W 061°59'0 0.0
2018-Jan-01 21:28N 17°06' W 061°59'0 0.0
2018-Jan-01 20:58N 17°06' W 061°59'0 0.0
2018-Jan-01 20:28N 17°06' W 061°59'0 0.0
2018-Jan-01 19:58N 17°06' W 061°59'0 0.0
2018-Jan-01 19:28N 17°06' W 061°59'0 0.0
2018-Jan-01 18:58N 17°06' W 061°59'0 0.0
2018-Jan-01 18:28N 17°06' W 061°59'0 0.0
2018-Jan-01 17:55N 17°06' W 061°59'0 0.0
2018-Jan-01 17:28N 17°06' W 061°59'0 0.0
2018-Jan-01 14:58N 17°06' W 061°59'0 0.0
2018-Jan-01 14:28N 17°06' W 061°59'0 0.0
2018-Jan-01 13:58N 17°06' W 061°59'0 0.0
2018-Jan-01 13:28N 17°06' W 061°59'0 0.1
2018-Jan-01 12:58N 17°06' W 061°59'0 0.0
2018-Jan-01 11:58N 17°06' W 061°59'0 0.0
2018-Jan-01 11:25N 17°06' W 061°59'0 0.0
2018-Jan-01 10:58N 17°06' W 061°59'0 0.0
2018-Jan-01 10:28N 17°06' W 061°59'0 0.0
2018-Jan-01 09:58N 17°06' W 061°59'0 0.0
2018-Jan-01 09:25N 17°06' W 061°59'0 0.0
2018-Jan-01 08:28N 17°06' W 061°59'0 0.0
2018-Jan-01 07:58N 17°06' W 061°59'0 0.0
2018-Jan-01 07:25N 17°06' W 061°59'0 0.0
2018-Jan-01 06:58N 17°06' W 061°59'0 0.0
2018-Jan-01 05:58N 17°06' W 061°59'0 0.0
2018-Jan-01 05:28N 17°06' W 061°59'0 0.0
2018-Jan-01 04:58N 17°06' W 061°59'0 0.0
2018-Jan-01 03:58N 17°06' W 061°59'0 0.0
2018-Jan-01 03:28N 17°06' W 061°59'0 0.0
2018-Jan-01 02:58N 17°06' W 061°59'0 0.0
2018-Jan-01 02:28N 17°06' W 061°59'0 0.0
2018-Jan-01 01:58N 17°06' W 061°59'0 0.0
2018-Jan-01 01:28N 17°06' W 061°59'0 0.0
2018-Jan-01 00:28N 17°06' W 061°59'0 0.0
2017-Dec-31 20:58N 17°06' W 061°59'0 0.0
2017-Dec-31 20:28N 17°06' W 061°59'0 0.0
2017-Dec-31 19:58N 17°06' W 061°59'0 0.0
2017-Dec-31 19:28N 17°06' W 061°59'0 0.0
2017-Dec-31 18:58N 17°06' W 061°59'0 0.3
2017-Dec-31 18:29N 17°06' W 061°59'2 4.9
2017-Dec-31 18:01N 17°06' W 062°01'713.2
2017-Dec-31 17:30N 17°06' W 062°08'713.9
2017-Dec-31 17:00N 17°05' W 062°15'713.3
2017-Dec-31 16:28N 17°05' W 062°23'813.3
2017-Dec-31 15:51N 17°04' W 062°32'613.5
2017-Dec-31 15:22N 17°05' W 062°38'913.9
2017-Dec-31 14:43N 17°13' W 062°42'312.8
2017-Dec-31 14:28N 17°16' W 062°43'1 0.1
2017-Dec-31 10:18N 17°17' W 062°43'0 0.3
2017-Dec-31 10:00N 17°17' W 062°43'0 0.3
2017-Dec-31 09:26N 17°17' W 062°43'0 0.0
2017-Dec-31 08:56N 17°17' W 062°43'0 0.1
2017-Dec-31 08:29N 17°17' W 062°43'0 0.1
2017-Dec-31 07:59N 17°17' W 062°43'0 0.0
2017-Dec-31 07:29N 17°17' W 062°43'0 0.1
2017-Dec-31 06:50N 17°17' W 062°43'0 0.0
2017-Dec-31 05:44N 17°17' W 062°43'0 0.1
2017-Dec-31 05:29N 17°17' W 062°43'0 0.0
2017-Dec-31 04:56N 17°17' W 062°43'0 0.0
2017-Dec-31 04:29N 17°17' W 062°43'0 0.0
2017-Dec-31 03:59N 17°17' W 062°43'0 0.0
2017-Dec-31 03:29N 17°17' W 062°43'0 0.0
2017-Dec-31 02:59N 17°17' W 062°43'0 0.1
2017-Dec-31 02:29N 17°17' W 062°43'0 0.0
2017-Dec-30 23:41N 17°17' W 062°43'0 0.0
2017-Dec-30 23:23N 17°17' W 062°43'0 0.1
2017-Dec-30 22:50N 17°17' W 062°43'0 0.2
2017-Dec-30 22:29N 17°17' W 062°43'0 0.0
2017-Dec-30 21:41N 17°17' W 062°43'0 0.0
2017-Dec-30 21:26N 17°17' W 062°43'0 0.0
2017-Dec-30 19:32N 17°17' W 062°43'42 9.6
2017-Dec-30 15:08N 17°06' W 063°26'  

Dump ship's entire track history